createdAt,value
2023-03-29T00:00:24.247Z,34.70
2023-03-29T00:01:35.371Z,34.69
2023-03-29T00:02:24.300Z,34.73
2023-03-29T00:03:24.306Z,34.73
2023-03-29T00:04:24.352Z,34.71
2023-03-29T00:05:24.199Z,34.74
2023-03-29T00:06:24.185Z,34.79
2023-03-29T00:07:23.185Z,34.74
2023-03-29T00:08:24.187Z,34.77
2023-03-29T00:09:24.168Z,34.71
2023-03-29T00:10:24.255Z,34.74
2023-03-29T00:11:24.159Z,34.78
2023-03-29T00:12:24.157Z,34.76
2023-03-29T00:13:24.147Z,34.73
2023-03-29T00:14:23.129Z,34.74
2023-03-29T00:15:24.130Z,34.84
2023-03-29T00:16:24.169Z,34.75
2023-03-29T00:17:24.133Z,34.83
2023-03-29T00:18:23.109Z,34.78
2023-03-29T00:19:24.105Z,34.75
2023-03-29T00:20:24.101Z,34.76
2023-03-29T00:21:24.119Z,34.84
2023-03-29T00:22:23.086Z,34.78
2023-03-29T00:23:24.082Z,34.78
2023-03-29T00:24:24.064Z,34.79
2023-03-29T00:25:24.082Z,34.79
2023-03-29T00:26:24.066Z,34.78
2023-03-29T00:27:24.071Z,34.78
2023-03-29T00:28:24.049Z,34.82
2023-03-29T00:29:24.045Z,34.82
2023-03-29T00:30:24.043Z,34.75
2023-03-29T00:31:24.045Z,34.76
2023-03-29T00:32:24.070Z,34.79
2023-03-29T00:33:24.020Z,34.79
2023-03-29T00:34:24.025Z,34.74
2023-03-29T00:35:24.011Z,34.75
2023-03-29T00:36:24.004Z,34.75
2023-03-29T00:37:23.992Z,34.73
2023-03-29T00:38:23.991Z,34.83
2023-03-29T00:39:23.961Z,34.82
2023-03-29T00:40:23.973Z,34.75
2023-03-29T00:41:23.950Z,34.78
2023-03-29T00:42:23.965Z,34.80
2023-03-29T00:43:23.946Z,34.73
2023-03-29T00:44:24.055Z,34.78
2023-03-29T00:45:23.995Z,34.74
2023-03-29T00:46:24.108Z,34.84
2023-03-29T00:47:23.073Z,34.76
2023-03-29T00:48:24.115Z,34.83
2023-03-29T00:49:23.142Z,34.76
2023-03-29T00:50:24.143Z,34.82
2023-03-29T00:51:23.178Z,34.79
2023-03-29T00:52:24.222Z,34.72
2023-03-29T00:53:24.256Z,34.77
2023-03-29T00:54:23.275Z,34.82
2023-03-29T00:55:24.300Z,34.74
2023-03-29T00:56:24.339Z,34.76
2023-03-29T00:57:26.464Z,34.75
2023-03-29T00:58:24.383Z,34.72
2023-03-29T00:59:24.362Z,34.84
2023-03-29T01:00:24.353Z,34.74
2023-03-29T01:01:24.366Z,34.76
2023-03-29T01:02:24.354Z,34.79
2023-03-29T01:03:24.385Z,34.80
2023-03-29T01:04:24.352Z,34.68
2023-03-29T01:05:24.329Z,34.79
2023-03-29T01:06:24.307Z,34.72
2023-03-29T01:07:24.323Z,34.75
2023-03-29T01:08:24.307Z,34.77
2023-03-29T01:09:24.283Z,34.77
2023-03-29T01:10:24.272Z,34.79
2023-03-29T01:11:24.264Z,34.81
2023-03-29T01:12:24.275Z,34.80
2023-03-29T01:13:24.284Z,34.75
2023-03-29T01:14:24.257Z,34.77
2023-03-29T01:15:23.254Z,34.75
2023-03-29T01:16:24.306Z,34.79
2023-03-29T01:17:24.258Z,34.71
2023-03-29T01:18:24.234Z,34.79
2023-03-29T01:19:24.229Z,34.81
2023-03-29T01:20:24.232Z,34.73
2023-03-29T01:21:24.200Z,34.82
2023-03-29T01:22:24.196Z,34.77
2023-03-29T01:23:23.185Z,34.76
2023-03-29T01:24:24.176Z,34.78
2023-03-29T01:25:23.167Z,34.74
2023-03-29T01:26:24.174Z,34.74
2023-03-29T01:27:24.166Z,34.80
2023-03-29T01:28:24.137Z,34.84
2023-03-29T01:29:24.148Z,34.78
2023-03-29T01:30:24.201Z,34.80
2023-03-29T01:31:24.273Z,34.81
2023-03-29T01:32:24.324Z,34.80
2023-03-29T01:33:23.354Z,34.84
2023-03-29T01:34:24.376Z,34.84
2023-03-29T01:35:24.427Z,34.80
2023-03-29T01:36:23.476Z,34.82
2023-03-29T01:37:24.492Z,34.81
2023-03-29T01:38:24.545Z,34.81
2023-03-29T01:39:23.577Z,34.87
2023-03-29T01:40:24.633Z,34.84
2023-03-29T01:41:23.676Z,34.89
2023-03-29T01:42:23.703Z,34.84
2023-03-29T01:43:24.751Z,34.81
2023-03-29T01:44:24.825Z,34.82
2023-03-29T01:45:23.857Z,34.81
2023-03-29T01:46:24.988Z,34.81
2023-03-29T01:47:24.967Z,34.87
2023-03-29T01:48:25.005Z,34.83
2023-03-29T01:49:25.026Z,34.81
2023-03-29T01:50:25.080Z,34.83
2023-03-29T01:51:24.095Z,35.01
2023-03-29T01:52:25.142Z,34.97
2023-03-29T01:53:25.150Z,34.86
2023-03-29T01:54:25.186Z,34.85
2023-03-29T01:55:25.210Z,34.88
2023-03-29T01:56:25.264Z,34.75
2023-03-29T01:57:25.447Z,34.73
2023-03-29T01:58:25.330Z,34.74
2023-03-29T01:59:25.352Z,34.73
2023-03-29T02:00:25.411Z,34.68
2023-03-29T02:01:24.470Z,34.64
2023-03-29T02:02:25.477Z,34.57
2023-03-29T02:03:25.574Z,34.60
2023-03-29T02:04:24.540Z,34.56
2023-03-29T02:05:25.547Z,34.54
2023-03-29T02:06:25.580Z,34.54
2023-03-29T02:07:25.601Z,34.53
2023-03-29T02:08:25.654Z,34.47
2023-03-29T02:09:25.623Z,34.42
2023-03-29T02:10:24.641Z,34.46
2023-03-29T02:11:25.640Z,34.42
2023-03-29T02:12:25.649Z,34.37
2023-03-29T02:13:25.650Z,34.37
2023-03-29T02:14:24.678Z,34.37
2023-03-29T02:15:25.702Z,34.27
2023-03-29T02:16:25.640Z,34.23
2023-03-29T02:17:24.712Z,34.19
2023-03-29T02:18:25.651Z,34.22
2023-03-29T02:19:25.667Z,34.14
2023-03-29T02:20:25.686Z,34.16
2023-03-29T02:21:25.698Z,34.09
2023-03-29T02:22:25.739Z,34.09
2023-03-29T02:23:25.767Z,34.06
2023-03-29T02:24:25.806Z,34.05
2023-03-29T02:25:25.803Z,33.98
2023-03-29T02:26:25.883Z,34.02
2023-03-29T02:27:25.895Z,33.97
2023-03-29T02:28:25.941Z,33.96
2023-03-29T02:29:24.996Z,33.91
2023-03-29T02:30:26.060Z,33.92
2023-03-29T02:31:26.221Z,33.86
2023-03-29T02:32:26.267Z,33.91
2023-03-29T02:33:26.273Z,33.83
2023-03-29T02:34:26.327Z,33.84
2023-03-29T02:35:25.381Z,33.82
2023-03-29T02:36:26.423Z,33.81
2023-03-29T02:37:26.517Z,33.78
2023-03-29T02:38:26.531Z,33.69
2023-03-29T02:39:26.591Z,33.75
2023-03-29T02:40:26.676Z,33.76
2023-03-29T02:41:26.703Z,33.71
2023-03-29T02:42:26.792Z,33.70
2023-03-29T02:43:26.136Z,33.68
2023-03-29T02:44:26.843Z,33.60
2023-03-29T02:45:26.911Z,33.63
2023-03-29T02:46:26.994Z,33.62
2023-03-29T02:47:26.026Z,33.62
2023-03-29T02:48:27.054Z,33.60
2023-03-29T02:49:26.090Z,33.64
2023-03-29T02:50:27.148Z,33.62
2023-03-29T02:51:27.181Z,33.56
2023-03-29T02:52:27.210Z,33.56
2023-03-29T02:53:27.261Z,33.57
2023-03-29T02:54:27.317Z,33.56
2023-03-29T02:55:27.350Z,33.60
2023-03-29T02:56:27.421Z,33.48
2023-03-29T02:57:27.429Z,33.51
2023-03-29T02:58:27.464Z,33.52
2023-03-29T02:59:27.501Z,33.50
2023-03-29T03:00:26.560Z,33.52
2023-03-29T03:01:27.638Z,33.50
2023-03-29T03:02:26.653Z,33.44
2023-03-29T03:03:27.813Z,33.51
2023-03-29T03:04:26.735Z,33.49
2023-03-29T03:05:27.766Z,33.47
2023-03-29T03:06:27.806Z,33.47
2023-03-29T03:07:27.843Z,33.49
2023-03-29T03:08:27.895Z,33.45
2023-03-29T03:09:27.924Z,33.47
2023-03-29T03:10:27.981Z,33.45
2023-03-29T03:11:27.998Z,33.45
2023-03-29T03:12:28.069Z,33.49
2023-03-29T03:13:27.080Z,33.44
2023-03-29T03:14:27.081Z,33.45
2023-03-29T03:15:28.114Z,33.42
2023-03-29T03:16:28.191Z,33.44
2023-03-29T03:17:27.200Z,33.40
2023-03-29T03:18:28.201Z,33.45
2023-03-29T03:19:28.228Z,33.44
2023-03-29T03:20:28.261Z,33.46
2023-03-29T03:21:28.335Z,33.42
2023-03-29T03:22:28.337Z,33.42
2023-03-29T03:23:28.364Z,33.42
2023-03-29T03:24:28.397Z,33.42
2023-03-29T03:25:28.443Z,33.45
2023-03-29T03:26:28.479Z,33.44
2023-03-29T03:27:28.522Z,33.40
2023-03-29T03:28:28.579Z,33.42
2023-03-29T03:29:27.604Z,33.44
2023-03-29T03:30:27.649Z,33.42
2023-03-29T03:31:28.743Z,33.45
2023-03-29T03:32:28.743Z,33.40
2023-03-29T03:33:28.765Z,33.44
2023-03-29T03:34:27.800Z,33.41
2023-03-29T03:35:28.871Z,33.45
2023-03-29T03:36:28.865Z,33.49
2023-03-29T03:37:28.894Z,33.45
2023-03-29T03:38:28.946Z,33.42
2023-03-29T03:39:28.998Z,33.47
2023-03-29T03:40:29.058Z,33.45
2023-03-29T03:41:29.069Z,33.45
2023-03-29T03:42:28.129Z,33.44
2023-03-29T03:43:28.147Z,33.46
2023-03-29T03:44:29.216Z,33.46
2023-03-29T03:45:29.266Z,33.48
2023-03-29T03:46:29.576Z,33.44
2023-03-29T03:47:29.427Z,33.49
2023-03-29T03:48:29.371Z,33.49
2023-03-29T03:49:28.397Z,33.46
2023-03-29T03:50:29.465Z,33.45
2023-03-29T03:51:29.480Z,33.46
2023-03-29T03:52:30.034Z,33.51
2023-03-29T03:53:29.570Z,33.49
2023-03-29T03:54:29.609Z,33.48
2023-03-29T03:55:29.674Z,33.51
2023-03-29T03:56:29.706Z,33.50
2023-03-29T03:57:29.775Z,33.47
2023-03-29T03:58:29.799Z,33.50
2023-03-29T03:59:30.287Z,33.54
2023-03-29T04:00:29.932Z,33.51
2023-03-29T04:01:29.937Z,33.52
2023-03-29T04:02:29.023Z,33.56
2023-03-29T04:03:29.095Z,33.53
2023-03-29T04:04:30.106Z,33.51
2023-03-29T04:05:30.184Z,33.47
2023-03-29T04:06:30.172Z,33.54
2023-03-29T04:07:30.229Z,33.60
2023-03-29T04:08:30.270Z,33.56
2023-03-29T04:09:30.316Z,33.56
2023-03-29T04:10:30.459Z,33.56
2023-03-29T04:11:30.449Z,33.54
2023-03-29T04:12:29.484Z,33.56
2023-03-29T04:13:30.526Z,33.59
2023-03-29T04:14:30.568Z,33.56
2023-03-29T04:15:29.643Z,33.57
2023-03-29T04:16:30.882Z,33.60
2023-03-29T04:17:30.807Z,33.63
2023-03-29T04:18:30.875Z,33.61
2023-03-29T04:19:30.847Z,33.59
2023-03-29T04:20:29.907Z,33.56
2023-03-29T04:21:30.966Z,33.60
2023-03-29T04:22:31.007Z,33.57
2023-03-29T04:23:31.104Z,33.61
2023-03-29T04:24:31.124Z,33.60
2023-03-29T04:25:31.179Z,33.64
2023-03-29T04:26:31.251Z,33.62
2023-03-29T04:27:31.289Z,33.60
2023-03-29T04:28:31.361Z,33.57
2023-03-29T04:29:30.407Z,33.60
2023-03-29T04:30:30.457Z,33.56
2023-03-29T04:31:31.576Z,33.65
2023-03-29T04:32:31.660Z,33.64
2023-03-29T04:33:31.668Z,33.60
2023-03-29T04:34:31.678Z,33.67
2023-03-29T04:35:31.863Z,33.61
2023-03-29T04:36:31.787Z,33.64
2023-03-29T04:37:31.828Z,33.61
2023-03-29T04:38:31.885Z,33.60
2023-03-29T04:39:32.076Z,33.60
2023-03-29T04:40:31.007Z,33.62
2023-03-29T04:41:31.048Z,33.60
2023-03-29T04:42:32.102Z,33.57
2023-03-29T04:43:32.151Z,33.64
2023-03-29T04:44:31.227Z,33.61
2023-03-29T04:45:31.255Z,33.59
2023-03-29T04:46:32.477Z,33.59
2023-03-29T04:47:32.379Z,33.56
2023-03-29T04:48:32.434Z,33.58
2023-03-29T04:49:31.461Z,33.60
2023-03-29T04:50:32.502Z,33.63
2023-03-29T04:51:32.564Z,33.58
2023-03-29T04:52:32.604Z,33.59
2023-03-29T04:53:31.652Z,33.58
2023-03-29T04:54:32.706Z,33.58
2023-03-29T04:55:32.757Z,33.56
2023-03-29T04:56:32.795Z,33.54
2023-03-29T04:57:32.850Z,33.59
2023-03-29T04:58:32.987Z,33.58
2023-03-29T04:59:32.924Z,33.54
2023-03-29T05:00:32.956Z,33.59
2023-03-29T05:01:33.062Z,33.55
2023-03-29T05:02:33.083Z,33.60
2023-03-29T05:03:33.109Z,33.56
2023-03-29T05:04:33.286Z,33.55
2023-03-29T05:10:32.394Z,33.54
2023-03-29T05:11:33.447Z,33.60
2023-03-29T05:12:33.478Z,33.56
2023-03-29T05:14:32.599Z,33.56
2023-03-29T05:15:33.646Z,33.54
2023-03-29T05:21:32.905Z,33.55
2023-03-29T05:22:33.947Z,33.58
2023-03-29T05:23:33.998Z,33.56
2023-03-29T05:24:34.044Z,33.59
2023-03-29T05:25:34.088Z,33.55
2023-03-29T05:26:34.190Z,33.59
2023-03-29T05:27:34.197Z,33.63
2023-03-29T05:28:34.257Z,33.71
2023-03-29T05:29:34.300Z,34.36
2023-03-29T05:34:33.570Z,37.32
2023-03-29T05:35:34.642Z,35.24
2023-03-29T05:38:33.781Z,34.50
2023-03-29T05:39:37.573Z,34.45
2023-03-29T05:42:33.760Z,34.45
2023-03-29T05:43:34.774Z,35.09
2023-03-29T05:44:34.748Z,35.11
2023-03-29T05:47:33.757Z,34.78
2023-03-29T05:48:34.740Z,34.72
2023-03-29T05:51:34.161Z,35.14
2023-03-29T05:52:34.736Z,35.04
2023-03-29T05:57:33.777Z,35.46
2023-03-29T05:58:34.666Z,35.30
2023-03-29T05:59:34.647Z,35.45
2023-03-29T06:00:37.891Z,35.34
2023-03-29T06:02:33.738Z,35.50
2023-03-29T06:03:34.774Z,35.83
2023-03-29T06:05:34.643Z,36.10
2023-03-29T06:06:34.644Z,35.84
2023-03-29T06:08:33.627Z,35.83
2023-03-29T06:09:34.610Z,36.10
2023-03-29T06:10:34.624Z,36.22
2023-03-29T06:12:33.883Z,36.41
2023-03-29T06:13:34.638Z,36.39
2023-03-29T06:14:34.581Z,36.39
2023-03-29T06:15:34.550Z,36.69
2023-03-29T06:16:34.607Z,36.70
2023-03-29T06:18:33.522Z,36.75
2023-03-29T06:19:33.916Z,36.53
2023-03-29T06:20:33.727Z,37.08
2023-03-29T06:21:34.550Z,37.08
2023-03-29T06:22:34.524Z,37.14
2023-03-29T06:23:34.672Z,37.32
2023-03-29T06:24:34.509Z,37.37
2023-03-29T06:28:33.463Z,37.61
2023-03-29T06:29:34.522Z,37.53
2023-03-29T06:30:34.438Z,37.77
2023-03-29T06:32:33.455Z,37.94
2023-03-29T06:33:34.480Z,37.62
2023-03-29T06:34:36.632Z,37.83
2023-03-29T06:35:34.521Z,38.29
2023-03-29T06:36:34.448Z,38.12
2023-03-29T06:37:34.383Z,38.33
2023-03-29T06:41:33.414Z,38.62
2023-03-29T06:42:35.202Z,38.99
2023-03-29T06:43:34.735Z,39.11
2023-03-29T06:44:34.456Z,38.85
2023-03-29T06:45:34.455Z,39.10
2023-03-29T06:46:34.469Z,38.95
2023-03-29T06:47:34.698Z,38.69
2023-03-29T06:49:33.309Z,39.36
2023-03-29T06:50:34.324Z,39.29
2023-03-29T06:54:33.274Z,35.72
2023-03-29T06:55:33.601Z,34.21
2023-03-29T06:56:34.308Z,36.66
2023-03-29T06:57:34.711Z,36.90
2023-03-29T06:58:34.395Z,37.60
2023-03-29T06:59:34.447Z,37.48
2023-03-29T07:00:33.295Z,38.05
2023-03-29T07:01:34.369Z,38.29
2023-03-29T07:02:34.380Z,38.43
2023-03-29T07:03:34.412Z,38.06
2023-03-29T07:04:34.459Z,37.87
2023-03-29T07:06:33.423Z,38.36
2023-03-29T07:07:34.506Z,38.27
2023-03-29T07:08:34.436Z,38.13
2023-03-29T07:09:34.463Z,37.93
2023-03-29T07:10:34.469Z,38.14
2023-03-29T07:12:33.554Z,38.07
2023-03-29T07:13:34.903Z,38.04
2023-03-29T07:14:34.884Z,38.40
2023-03-29T07:15:33.685Z,38.32
2023-03-29T07:16:34.900Z,38.39
2023-03-29T07:17:34.644Z,38.52
2023-03-29T07:18:34.674Z,38.57
2023-03-29T07:19:35.077Z,38.66
2023-03-29T07:20:34.870Z,38.81
2023-03-29T07:21:36.685Z,38.67
2023-03-29T07:22:34.950Z,38.75
2023-03-29T07:23:33.816Z,38.89
2023-03-29T07:24:34.815Z,38.64
2023-03-29T07:25:34.805Z,38.73
2023-03-29T07:28:33.836Z,39.09
2023-03-29T07:29:35.120Z,39.27
2023-03-29T07:30:34.804Z,39.22
2023-03-29T07:31:34.846Z,39.10
2023-03-29T07:32:34.874Z,39.04
2023-03-29T07:33:34.890Z,39.43
2023-03-29T07:37:33.754Z,39.35
2023-03-29T07:38:34.772Z,39.51
2023-03-29T07:39:34.737Z,39.51
2023-03-29T07:44:33.711Z,40.14
2023-03-29T07:45:34.771Z,39.87
2023-03-29T07:46:40.158Z,40.56
2023-03-29T07:48:33.984Z,40.39
2023-03-29T07:49:34.736Z,41.07
2023-03-29T07:53:33.606Z,40.39
2023-03-29T07:54:33.588Z,40.61
2023-03-29T07:55:34.570Z,40.12
2023-03-29T07:56:34.583Z,40.04
2023-03-29T07:57:34.596Z,40.16
2023-03-29T08:02:34.262Z,40.53
2023-03-29T08:03:34.534Z,40.55
2023-03-29T08:05:40.778Z,40.61
2023-03-29T08:06:34.505Z,40.65
2023-03-29T08:07:34.485Z,40.58
2023-03-29T08:08:34.479Z,40.59
2023-03-29T08:13:34.171Z,40.51
2023-03-29T08:14:38.191Z,40.48
2023-03-29T08:16:33.542Z,40.34
2023-03-29T08:17:34.446Z,40.34
2023-03-29T08:18:34.913Z,40.29
2023-03-29T08:21:33.439Z,40.23
2023-03-29T08:22:34.410Z,40.24
2023-03-29T08:23:34.378Z,40.03
2023-03-29T08:24:34.404Z,40.05
2023-03-29T08:27:33.341Z,40.07
2023-03-29T08:28:34.319Z,40.01
2023-03-29T08:29:34.399Z,39.95
2023-03-29T08:32:33.388Z,39.78
2023-03-29T08:34:33.276Z,39.74
2023-03-29T08:35:34.315Z,39.73
2023-03-29T08:37:33.742Z,39.68
2023-03-29T08:38:36.184Z,39.67
2023-03-29T08:43:33.315Z,39.47
2023-03-29T08:44:34.342Z,39.42
2023-03-29T08:45:34.277Z,39.34
2023-03-29T08:48:33.267Z,39.36
2023-03-29T08:49:33.221Z,39.33
2023-03-29T08:50:34.300Z,39.20
2023-03-29T08:54:33.223Z,39.33
2023-03-29T08:55:34.306Z,39.19
2023-03-29T08:59:33.250Z,39.32
2023-03-29T09:00:34.176Z,39.34
2023-03-29T09:04:33.276Z,39.27
2023-03-29T09:05:34.135Z,39.18
2023-03-29T09:09:33.139Z,39.20
2023-03-29T09:10:34.084Z,39.17
2023-03-29T09:11:34.086Z,39.25
2023-03-29T09:12:35.830Z,39.15
2023-03-29T09:15:33.077Z,39.09
2023-03-29T09:16:34.138Z,39.11
2023-03-29T09:17:34.075Z,39.14
2023-03-29T09:18:33.034Z,39.06
2023-03-29T09:19:34.046Z,39.11
2023-03-29T09:20:33.119Z,39.06
2023-03-29T09:21:34.043Z,39.08
2023-03-29T09:26:32.983Z,39.07
2023-03-29T09:27:33.978Z,38.99
2023-03-29T09:28:33.971Z,38.90
2023-03-29T09:30:32.978Z,38.82
2023-03-29T09:31:33.986Z,38.93
2023-03-29T09:34:32.935Z,38.72
2023-03-29T09:35:33.966Z,38.70
2023-03-29T09:36:32.993Z,38.66
2023-03-29T09:37:33.926Z,38.62
2023-03-29T09:39:32.892Z,38.76
2023-03-29T09:40:33.907Z,38.71
2023-03-29T09:41:33.906Z,38.81
2023-03-29T09:42:33.964Z,38.85
2023-03-29T09:46:32.854Z,39.85
2023-03-29T09:47:33.876Z,40.50
2023-03-29T09:48:33.232Z,38.78
2023-03-29T09:49:33.774Z,39.98
2023-03-29T09:50:33.969Z,38.46
2023-03-29T09:52:32.912Z,36.71
2023-03-29T09:53:34.281Z,36.56
2023-03-29T09:54:32.757Z,37.54
2023-03-29T09:55:33.783Z,35.84
2023-03-29T09:56:33.735Z,35.73
2023-03-29T09:57:33.744Z,35.03
2023-03-29T09:58:33.736Z,34.86
2023-03-29T10:02:32.708Z,33.66
2023-03-29T10:03:33.704Z,34.40
2023-03-29T10:04:33.749Z,33.56
2023-03-29T10:05:33.711Z,34.24
2023-03-29T10:06:33.712Z,33.47
2023-03-29T10:07:33.722Z,33.88
2023-03-29T10:08:33.792Z,33.97
2023-03-29T10:09:32.827Z,34.97
2023-03-29T10:10:33.811Z,34.29
2023-03-29T10:11:33.867Z,35.28
2023-03-29T10:12:32.877Z,35.41
2023-03-29T10:13:33.887Z,35.43
2023-03-29T10:16:33.077Z,35.69
2023-03-29T10:17:34.137Z,35.87
2023-03-29T10:18:34.137Z,35.96
2023-03-29T10:19:34.146Z,35.96
2023-03-29T10:20:34.189Z,36.31
2023-03-29T10:21:34.212Z,36.34
2023-03-29T10:22:34.199Z,36.19
2023-03-29T10:25:33.858Z,36.79
2023-03-29T10:26:33.237Z,36.78
2023-03-29T10:27:34.244Z,36.93
2023-03-29T10:28:34.385Z,36.82
2023-03-29T10:29:34.564Z,37.59
2023-03-29T10:30:34.534Z,37.74
2023-03-29T10:31:34.517Z,37.35
2023-03-29T10:32:34.560Z,37.67
2023-03-29T10:34:33.582Z,37.71
2023-03-29T10:35:34.825Z,37.77
2023-03-29T10:36:34.849Z,37.88
2023-03-29T10:37:35.074Z,37.87
2023-03-29T10:38:34.861Z,38.06
2023-03-29T10:40:33.942Z,38.62
2023-03-29T10:41:35.330Z,39.04
2023-03-29T10:42:35.195Z,39.08
2023-03-29T10:43:35.299Z,38.86
2023-03-29T10:44:36.884Z,38.58
2023-03-29T10:45:35.229Z,38.60
2023-03-29T10:46:37.017Z,38.81
2023-03-29T10:47:35.170Z,38.73
2023-03-29T10:49:34.099Z,38.74
2023-03-29T10:50:35.053Z,38.60
2023-03-29T10:51:35.354Z,38.90
2023-03-29T10:52:35.086Z,38.83
2023-03-29T10:53:35.219Z,38.81
2023-03-29T10:56:33.971Z,38.86
2023-03-29T10:57:34.978Z,38.91
2023-03-29T10:58:34.963Z,39.10
2023-03-29T11:00:33.907Z,39.22
2023-03-29T11:01:34.992Z,39.20
2023-03-29T11:02:35.035Z,39.26
2023-03-29T11:03:34.689Z,39.26
2023-03-29T11:04:34.881Z,39.18
2023-03-29T11:05:34.884Z,39.21
2023-03-29T11:06:34.871Z,39.31
2023-03-29T11:11:33.855Z,39.54
2023-03-29T11:12:34.824Z,39.82
2023-03-29T11:13:35.156Z,39.77
2023-03-29T11:15:34.257Z,39.73
2023-03-29T11:16:34.790Z,39.55
2023-03-29T11:19:33.797Z,39.60
2023-03-29T11:20:34.791Z,39.50
2023-03-29T11:21:34.792Z,39.42
2023-03-29T11:22:35.167Z,39.49
2023-03-29T11:24:34.072Z,39.50
2023-03-29T11:25:34.920Z,39.49
2023-03-29T11:26:34.719Z,39.49
2023-03-29T11:27:34.761Z,39.45
2023-03-29T11:28:34.758Z,39.54
2023-03-29T11:30:33.685Z,39.69
2023-03-29T11:31:35.919Z,39.61
2023-03-29T11:32:34.714Z,39.70
2023-03-29T11:35:33.663Z,39.63
2023-03-29T11:36:34.644Z,39.61
2023-03-29T11:37:35.311Z,39.67
2023-03-29T11:39:34.574Z,39.67
2023-03-29T11:40:35.570Z,39.57
2023-03-29T11:44:33.596Z,39.73
2023-03-29T11:45:34.570Z,39.80
2023-03-29T11:46:34.605Z,39.84
2023-03-29T11:50:36.029Z,39.67
2023-03-29T11:51:34.554Z,39.79
2023-03-29T11:52:34.535Z,39.67
2023-03-29T11:56:33.821Z,39.73
2023-03-29T11:57:34.476Z,39.69
2023-03-29T12:02:33.543Z,39.59
2023-03-29T12:03:34.595Z,39.71
2023-03-29T12:05:33.433Z,39.87
2023-03-29T12:06:34.420Z,39.76
2023-03-29T12:07:34.420Z,39.58
2023-03-29T12:09:33.410Z,38.02
2023-03-29T12:10:34.384Z,37.40
2023-03-29T12:11:34.387Z,37.07
2023-03-29T12:13:33.360Z,37.76
2023-03-29T12:14:34.370Z,39.33
2023-03-29T12:15:34.504Z,39.22
2023-03-29T12:16:34.415Z,40.22
2023-03-29T12:19:33.342Z,42.81
2023-03-29T12:20:34.327Z,43.29
2023-03-29T12:21:33.322Z,41.90
2023-03-29T12:22:34.302Z,40.98
2023-03-29T12:23:33.299Z,40.37
2023-03-29T12:24:34.295Z,39.71
2023-03-29T12:27:33.277Z,39.28
2023-03-29T12:28:34.268Z,39.26
2023-03-29T12:29:34.273Z,39.14
2023-03-29T12:34:33.272Z,38.56
2023-03-29T12:35:34.449Z,38.58
2023-03-29T12:36:34.370Z,38.69
2023-03-29T12:37:34.367Z,38.46
2023-03-29T12:38:34.377Z,38.53
2023-03-29T12:39:34.377Z,38.62
2023-03-29T12:41:33.381Z,38.42
2023-03-29T12:42:34.405Z,38.51
2023-03-29T12:44:33.504Z,38.32
2023-03-29T12:45:34.470Z,38.26
2023-03-29T12:46:34.610Z,38.13
2023-03-29T12:47:34.634Z,38.16
2023-03-29T12:50:33.659Z,37.29
2023-03-29T12:51:33.675Z,37.55
2023-03-29T12:52:33.683Z,37.50
2023-03-29T12:53:34.721Z,37.93
2023-03-29T12:54:34.769Z,37.67
2023-03-29T12:55:34.773Z,37.46
2023-03-29T12:56:34.765Z,37.35
2023-03-29T12:57:34.791Z,37.56
2023-03-29T12:58:34.852Z,37.60
2023-03-29T13:01:34.024Z,37.83
2023-03-29T13:02:35.043Z,37.87
2023-03-29T13:03:34.958Z,37.64
2023-03-29T13:04:35.047Z,37.75
2023-03-29T13:05:35.110Z,37.92
2023-03-29T13:06:35.118Z,37.90
2023-03-29T13:07:35.182Z,37.80
2023-03-29T13:08:35.220Z,37.94
2023-03-29T13:09:35.283Z,37.76
2023-03-29T13:10:35.281Z,37.67
2023-03-29T13:11:35.317Z,37.73
2023-03-29T13:12:35.350Z,37.92
2023-03-29T13:13:35.368Z,37.95
2023-03-29T13:14:35.415Z,37.59
2023-03-29T13:15:35.461Z,37.64
2023-03-29T13:18:34.419Z,37.99
2023-03-29T13:19:35.483Z,37.74
2023-03-29T13:22:34.404Z,37.79
2023-03-29T13:23:35.411Z,37.97
2023-03-29T13:24:35.426Z,37.85
2023-03-29T13:25:34.412Z,37.64
2023-03-29T13:26:35.427Z,37.59
2023-03-29T13:27:35.394Z,37.57
2023-03-29T13:29:34.456Z,37.46
2023-03-29T13:30:35.436Z,37.54
2023-03-29T13:31:35.495Z,37.64
2023-03-29T13:32:35.499Z,37.51
2023-03-29T13:33:35.506Z,37.42
2023-03-29T13:34:35.497Z,37.41
2023-03-29T13:35:35.610Z,37.45
2023-03-29T13:39:34.610Z,37.45
2023-03-29T13:40:35.587Z,37.60
2023-03-29T13:41:35.612Z,37.67
2023-03-29T13:45:34.653Z,37.96
2023-03-29T13:46:35.728Z,37.80
2023-03-29T13:47:35.735Z,37.77
2023-03-29T13:48:35.810Z,37.79
2023-03-29T13:50:34.717Z,37.83
2023-03-29T13:51:35.768Z,37.93
2023-03-29T13:53:34.736Z,37.88
2023-03-29T13:55:36.746Z,37.84
2023-03-29T13:56:35.718Z,37.96
2023-03-29T14:01:34.698Z,37.98
2023-03-29T14:02:36.760Z,38.03
2023-03-29T14:04:34.641Z,37.99
2023-03-29T14:05:35.641Z,38.06
2023-03-29T14:10:34.583Z,38.29
2023-03-29T14:11:35.576Z,38.30
2023-03-29T14:12:35.576Z,38.53
2023-03-29T14:14:38.583Z,38.09
2023-03-29T14:15:35.753Z,38.16
2023-03-29T14:18:34.747Z,38.28
2023-03-29T14:19:35.782Z,38.22
2023-03-29T14:20:35.764Z,38.26
2023-03-29T14:21:35.786Z,38.20
2023-03-29T14:22:35.784Z,38.22
2023-03-29T14:23:35.831Z,38.43
2023-03-29T14:24:35.792Z,38.48
2023-03-29T14:25:35.798Z,38.56
2023-03-29T14:26:35.808Z,38.49
2023-03-29T14:27:35.804Z,38.36
2023-03-29T14:28:35.828Z,38.28
2023-03-29T14:29:35.850Z,38.37
2023-03-29T14:30:35.878Z,38.42
2023-03-29T14:31:35.971Z,38.37
2023-03-29T14:32:35.954Z,38.35
2023-03-29T14:33:35.882Z,38.46
2023-03-29T14:34:35.906Z,38.46
2023-03-29T14:35:35.972Z,38.41
2023-03-29T14:36:36.031Z,38.48
2023-03-29T14:37:35.956Z,38.40
2023-03-29T14:38:35.962Z,38.48
2023-03-29T14:39:36.001Z,38.48
2023-03-29T14:40:36.018Z,38.41
2023-03-29T14:41:36.030Z,38.56
2023-03-29T14:42:36.046Z,38.44
2023-03-29T14:43:36.059Z,38.47
2023-03-29T14:44:36.085Z,38.50
2023-03-29T14:45:36.108Z,38.51
2023-03-29T14:46:36.171Z,38.56
2023-03-29T14:47:36.157Z,38.46
2023-03-29T14:48:36.146Z,38.56
2023-03-29T14:49:36.159Z,38.57
2023-03-29T14:51:35.178Z,38.59
2023-03-29T14:52:36.183Z,38.64
2023-03-29T14:53:36.185Z,38.67
2023-03-29T14:54:36.212Z,38.64
2023-03-29T14:55:36.237Z,38.61
2023-03-29T14:56:36.230Z,38.41
2023-03-29T14:57:36.262Z,38.59
2023-03-29T14:58:36.293Z,38.53
2023-03-29T14:59:36.312Z,38.49
2023-03-29T15:00:36.362Z,38.34
2023-03-29T15:01:36.436Z,38.40
2023-03-29T15:03:35.558Z,38.27
2023-03-29T15:04:36.527Z,38.21
2023-03-29T15:05:36.594Z,38.27
2023-03-29T15:06:36.651Z,38.30
2023-03-29T15:07:37.344Z,38.30
2023-03-29T15:12:35.985Z,38.49
2023-03-29T15:13:36.986Z,38.52
2023-03-29T15:14:37.038Z,38.53
2023-03-29T15:15:37.483Z,38.60
2023-03-29T15:16:37.153Z,38.54
2023-03-29T15:17:50.472Z,38.55
2023-03-29T15:18:37.193Z,38.49
2023-03-29T15:23:36.131Z,38.71
2023-03-29T15:24:37.126Z,38.67
2023-03-29T15:27:36.132Z,38.67
2023-03-29T15:28:37.092Z,38.67
2023-03-29T15:30:51.667Z,38.69
2023-03-29T15:31:37.197Z,38.66
2023-03-29T15:32:37.168Z,38.72
2023-03-29T15:33:37.244Z,38.84
2023-03-29T15:34:37.052Z,38.76
2023-03-29T15:35:37.100Z,38.83
2023-03-29T15:36:37.033Z,38.86
2023-03-29T15:37:37.056Z,38.84
2023-03-29T15:38:43.034Z,38.87
2023-03-29T15:39:37.125Z,38.78
2023-03-29T15:40:37.155Z,38.84
2023-03-29T15:41:36.088Z,38.83
2023-03-29T15:42:37.087Z,38.83
2023-03-29T15:43:37.088Z,38.87
2023-03-29T15:44:37.064Z,38.91
2023-03-29T15:45:37.055Z,38.91
2023-03-29T15:46:37.122Z,38.96
2023-03-29T15:47:36.172Z,38.93
2023-03-29T15:48:37.053Z,38.91
2023-03-29T15:49:37.051Z,38.93
2023-03-29T15:50:36.067Z,38.83
2023-03-29T15:51:37.083Z,38.90
2023-03-29T15:52:37.131Z,38.90
2023-03-29T15:53:37.188Z,38.95
2023-03-29T15:54:37.289Z,38.89
2023-03-29T15:55:37.288Z,38.90
2023-03-29T15:56:37.320Z,39.04
2023-03-29T15:57:37.460Z,39.04
2023-03-29T15:58:37.417Z,38.95
2023-03-29T15:59:37.517Z,39.07
2023-03-29T16:00:37.564Z,39.15
2023-03-29T16:01:37.897Z,38.91
2023-03-29T16:02:37.796Z,39.02
2023-03-29T16:03:37.655Z,38.93
2023-03-29T16:04:36.702Z,39.01
2023-03-29T16:05:36.769Z,39.04
2023-03-29T16:06:37.833Z,39.01
2023-03-29T16:07:37.874Z,39.05
2023-03-29T16:08:37.931Z,39.08
2023-03-29T16:09:37.979Z,39.01
2023-03-29T16:10:38.028Z,39.07
2023-03-29T16:11:37.107Z,39.04
2023-03-29T16:12:38.155Z,39.14
2023-03-29T16:13:38.268Z,39.09
2023-03-29T16:14:37.281Z,39.07